sensor_id;sensor_type;location;lat;lon;timestamp;temperature;humidity
20740;DHT22;10530;49.968;19.844;2023-02-28T00:03:08;-0.10;99.90
20740;DHT22;10530;49.968;19.844;2023-02-28T00:08:10;-0.10;99.90
20740;DHT22;10530;49.968;19.844;2023-02-28T00:13:14;-0.20;99.90
20740;DHT22;10530;49.968;19.844;2023-02-28T00:18:16;-0.20;99.90
20740;DHT22;10530;49.968;19.844;2023-02-28T00:23:19;-0.20;99.90
20740;DHT22;10530;49.968;19.844;2023-02-28T00:28:22;-0.20;99.90
20740;DHT22;10530;49.968;19.844;2023-02-28T00:33:27;-0.20;99.90
20740;DHT22;10530;49.968;19.844;2023-02-28T00:38:29;-0.20;99.90
20740;DHT22;10530;49.968;19.844;2023-02-28T00:43:34;-0.20;99.90
20740;DHT22;10530;49.968;19.844;2023-02-28T00:48:38;-0.30;99.90
20740;DHT22;10530;49.968;19.844;2023-02-28T00:53:41;-0.30;99.90
20740;DHT22;10530;49.968;19.844;2023-02-28T00:58:43;-0.30;99.90
20740;DHT22;10530;49.968;19.844;2023-02-28T01:03:46;-0.40;99.90
20740;DHT22;10530;49.968;19.844;2023-02-28T01:08:49;-0.50;99.90
20740;DHT22;10530;49.968;19.844;2023-02-28T01:13:51;-0.60;99.90
20740;DHT22;10530;49.968;19.844;2023-02-28T01:18:54;-0.60;99.90
20740;DHT22;10530;49.968;19.844;2023-02-28T01:23:57;-0.50;99.90
20740;DHT22;10530;49.968;19.844;2023-02-28T01:29:00;-0.50;99.90
20740;DHT22;10530;49.968;19.844;2023-02-28T01:34:03;-0.60;99.90
20740;DHT22;10530;49.968;19.844;2023-02-28T01:39:06;-0.70;99.90
20740;DHT22;10530;49.968;19.844;2023-02-28T01:49:50;-0.90;99.90
20740;DHT22;10530;49.968;19.844;2023-02-28T01:54:55;-1.00;99.90
20740;DHT22;10530;49.968;19.844;2023-02-28T02:00:03;-1.20;99.90
20740;DHT22;10530;49.968;19.844;2023-02-28T02:05:22;-1.30;99.90
20740;DHT22;10530;49.968;19.844;2023-02-28T02:15:43;-1.40;99.90
20740;DHT22;10530;49.968;19.844;2023-02-28T02:37:27;-1.60;99.90
20740;DHT22;10530;49.968;19.844;2023-02-28T02:42:56;-1.60;99.90
20740;DHT22;10530;49.968;19.844;2023-02-28T02:48:01;-1.60;99.90
20740;DHT22;10530;49.968;19.844;2023-02-28T02:53:07;-1.70;99.90
20740;DHT22;10530;49.968;19.844;2023-02-28T02:58:15;-1.80;99.90
20740;DHT22;10530;49.968;19.844;2023-02-28T03:03:20;-1.90;99.90
20740;DHT22;10530;49.968;19.844;2023-02-28T03:08:35;-2.00;99.90
20740;DHT22;10530;49.968;19.844;2023-02-28T03:25:05;-2.30;99.90
20740;DHT22;10530;49.968;19.844;2023-02-28T03:30:51;-2.50;99.90
20740;DHT22;10530;49.968;19.844;2023-02-28T03:36:02;-2.60;99.90
20740;DHT22;10530;49.968;19.844;2023-02-28T03:41:22;-2.70;99.90
20740;DHT22;10530;49.968;19.844;2023-02-28T03:46:28;-2.80;99.90
20740;DHT22;10530;49.968;19.844;2023-02-28T03:51:34;-2.80;99.90
20740;DHT22;10530;49.968;19.844;2023-02-28T03:57:02;-2.90;99.90
20740;DHT22;10530;49.968;19.844;2023-02-28T04:02:03;-2.80;99.90
20740;DHT22;10530;49.968;19.844;2023-02-28T04:07:08;-2.90;99.90
20740;DHT22;10530;49.968;19.844;2023-02-28T04:12:11;-2.90;99.90
20740;DHT22;10530;49.968;19.844;2023-02-28T04:17:13;-2.90;99.90
20740;DHT22;10530;49.968;19.844;2023-02-28T04:22:16;-2.90;99.90
20740;DHT22;10530;49.968;19.844;2023-02-28T04:27:20;-2.90;99.90
20740;DHT22;10530;49.968;19.844;2023-02-28T04:32:23;-3.00;99.90
20740;DHT22;10530;49.968;19.844;2023-02-28T04:37:26;-3.00;99.90
20740;DHT22;10530;49.968;19.844;2023-02-28T04:42:30;-3.00;99.90
20740;DHT22;10530;49.968;19.844;2023-02-28T04:47:37;-3.10;99.90
20740;DHT22;10530;49.968;19.844;2023-02-28T04:52:40;-3.20;99.90
20740;DHT22;10530;49.968;19.844;2023-02-28T04:57:43;-3.10;99.90
20740;DHT22;10530;49.968;19.844;2023-02-28T05:02:45;-3.20;99.90
20740;DHT22;10530;49.968;19.844;2023-02-28T05:07:48;-3.30;99.90
20740;DHT22;10530;49.968;19.844;2023-02-28T05:12:51;-3.20;99.90
20740;DHT22;10530;49.968;19.844;2023-02-28T05:17:53;-3.30;99.90
20740;DHT22;10530;49.968;19.844;2023-02-28T05:22:58;-3.30;99.90
20740;DHT22;10530;49.968;19.844;2023-02-28T05:28:01;-3.40;99.90
20740;DHT22;10530;49.968;19.844;2023-02-28T05:33:04;-3.40;99.90
20740;DHT22;10530;49.968;19.844;2023-02-28T05:38:07;-3.40;99.90
20740;DHT22;10530;49.968;19.844;2023-02-28T05:43:10;-3.30;99.90
20740;DHT22;10530;49.968;19.844;2023-02-28T05:48:14;-3.40;99.90
20740;DHT22;10530;49.968;19.844;2023-02-28T05:53:17;-3.30;99.90
20740;DHT22;10530;49.968;19.844;2023-02-28T05:58:19;-3.30;99.90
20740;DHT22;10530;49.968;19.844;2023-02-28T06:03:22;-3.20;99.90
20740;DHT22;10530;49.968;19.844;2023-02-28T06:08:25;-3.10;99.90
20740;DHT22;10530;49.968;19.844;2023-02-28T06:13:28;-3.00;99.90
20740;DHT22;10530;49.968;19.844;2023-02-28T06:18:31;-2.90;99.90
20740;DHT22;10530;49.968;19.844;2023-02-28T06:23:33;-2.80;99.90
20740;DHT22;10530;49.968;19.844;2023-02-28T06:28:36;-2.70;99.90
20740;DHT22;10530;49.968;19.844;2023-02-28T06:33:39;-2.60;99.90
20740;DHT22;10530;49.968;19.844;2023-02-28T06:38:43;-2.60;99.90
20740;DHT22;10530;49.968;19.844;2023-02-28T06:43:46;-2.50;99.90
20740;DHT22;10530;49.968;19.844;2023-02-28T06:48:49;-2.30;99.90
20740;DHT22;10530;49.968;19.844;2023-02-28T06:53:52;-2.20;99.90
20740;DHT22;10530;49.968;19.844;2023-02-28T06:58:54;-2.00;99.90
20740;DHT22;10530;49.968;19.844;2023-02-28T07:03:59;-1.90;99.90
20740;DHT22;10530;49.968;19.844;2023-02-28T07:09:02;-1.80;99.90
20740;DHT22;10530;49.968;19.844;2023-02-28T07:14:09;-1.70;99.90
20740;DHT22;10530;49.968;19.844;2023-02-28T07:19:12;-1.50;99.90
20740;DHT22;10530;49.968;19.844;2023-02-28T07:24:14;-1.30;99.90
20740;DHT22;10530;49.968;19.844;2023-02-28T07:29:18;-1.00;99.90
20740;DHT22;10530;49.968;19.844;2023-02-28T07:34:21;-0.80;99.90
20740;DHT22;10530;49.968;19.844;2023-02-28T07:39:24;-0.60;99.90
20740;DHT22;10530;49.968;19.844;2023-02-28T07:44:27;-0.30;99.90
20740;DHT22;10530;49.968;19.844;2023-02-28T07:49:30;-0.40;99.90
20740;DHT22;10530;49.968;19.844;2023-02-28T07:54:33;-0.10;99.90
20740;DHT22;10530;49.968;19.844;2023-02-28T07:59:36;-0.10;99.90
20740;DHT22;10530;49.968;19.844;2023-02-28T08:04:39;0.30;99.90
20740;DHT22;10530;49.968;19.844;2023-02-28T08:09:43;0.90;99.90
20740;DHT22;10530;49.968;19.844;2023-02-28T08:14:46;1.20;99.90
20740;DHT22;10530;49.968;19.844;2023-02-28T08:19:49;1.20;99.90
20740;DHT22;10530;49.968;19.844;2023-02-28T08:24:52;1.90;99.90
20740;DHT22;10530;49.968;19.844;2023-02-28T08:29:55;2.00;99.90
20740;DHT22;10530;49.968;19.844;2023-02-28T08:34:58;1.70;99.90
20740;DHT22;10530;49.968;19.844;2023-02-28T08:40:01;3.40;99.90
20740;DHT22;10530;49.968;19.844;2023-02-28T08:45:04;5.20;85.20
20740;DHT22;10530;49.968;19.844;2023-02-28T08:50:08;6.00;69.50
20740;DHT22;10530;49.968;19.844;2023-02-28T08:55:11;4.80;62.30
20740;DHT22;10530;49.968;19.844;2023-02-28T09:00:15;5.70;57.80
20740;DHT22;10530;49.968;19.844;2023-02-28T09:05:17;4.50;58.00
20740;DHT22;10530;49.968;19.844;2023-02-28T09:10:20;3.70;56.70
20740;DHT22;10530;49.968;19.844;2023-02-28T09:15:23;3.50;57.10
20740;DHT22;10530;49.968;19.844;2023-02-28T09:20:26;4.60;52.80
20740;DHT22;10530;49.968;19.844;2023-02-28T09:25:29;6.40;46.40
20740;DHT22;10530;49.968;19.844;2023-02-28T09:30:32;8.20;41.10
20740;DHT22;10530;49.968;19.844;2023-02-28T09:35:35;8.90;37.20
20740;DHT22;10530;49.968;19.844;2023-02-28T09:40:59;10.30;29.80
20740;DHT22;10530;49.968;19.844;2023-02-28T09:51:50;9.70;27.70
20740;DHT22;10530;49.968;19.844;2023-02-28T10:08:22;10.70;28.10
20740;DHT22;10530;49.968;19.844;2023-02-28T10:18:47;10.50;25.20
20740;DHT22;10530;49.968;19.844;2023-02-28T10:23:56;12.00;37.20
20740;DHT22;10530;49.968;19.844;2023-02-28T10:29:01;11.90;25.60
20740;DHT22;10530;49.968;19.844;2023-02-28T10:34:05;12.40;22.90
20740;DHT22;10530;49.968;19.844;2023-02-28T10:39:37;13.00;21.30
20740;DHT22;10530;49.968;19.844;2023-02-28T10:44:40;12.90;21.30
20740;DHT22;10530;49.968;19.844;2023-02-28T10:49:50;12.20;21.00
20740;DHT22;10530;49.968;19.844;2023-02-28T10:55:14;12.10;21.90
20740;DHT22;10530;49.968;19.844;2023-02-28T11:00:25;11.30;25.40
20740;DHT22;10530;49.968;19.844;2023-02-28T11:05:35;10.50;25.00
20740;DHT22;10530;49.968;19.844;2023-02-28T11:10:39;11.50;24.00
20740;DHT22;10530;49.968;19.844;2023-02-28T11:15:42;9.80;24.50
20740;DHT22;10530;49.968;19.844;2023-02-28T11:20:53;11.10;24.50
20740;DHT22;10530;49.968;19.844;2023-02-28T11:26:00;10.80;22.60
20740;DHT22;10530;49.968;19.844;2023-02-28T11:46:51;11.40;21.20
20740;DHT22;10530;49.968;19.844;2023-02-28T11:52:02;11.60;24.90
20740;DHT22;10530;49.968;19.844;2023-02-28T12:03:14;11.80;22.60
20740;DHT22;10530;49.968;19.844;2023-02-28T12:13:48;11.10;22.50
20740;DHT22;10530;49.968;19.844;2023-02-28T12:19:13;9.70;24.20
20740;DHT22;10530;49.968;19.844;2023-02-28T12:29:59;10.30;25.20
20740;DHT22;10530;49.968;19.844;2023-02-28T12:40:25;9.20;25.80
20740;DHT22;10530;49.968;19.844;2023-02-28T12:45:52;9.60;25.70
20740;DHT22;10530;49.968;19.844;2023-02-28T12:50:56;9.20;25.20
20740;DHT22;10530;49.968;19.844;2023-02-28T13:11:45;10.00;25.30
20740;DHT22;10530;49.968;19.844;2023-02-28T13:21:51;9.30;25.60
20740;DHT22;10530;49.968;19.844;2023-02-28T13:32:29;9.30;26.20
20740;DHT22;10530;49.968;19.844;2023-02-28T13:37:44;10.20;27.60
20740;DHT22;10530;49.968;19.844;2023-02-28T13:42:48;9.90;24.00
20740;DHT22;10530;49.968;19.844;2023-02-28T13:48:00;9.20;25.60
20740;DHT22;10530;49.968;19.844;2023-02-28T14:09:01;9.80;26.00
20740;DHT22;10530;49.968;19.844;2023-02-28T14:14:08;9.10;26.60
20740;DHT22;10530;49.968;19.844;2023-02-28T14:19:26;8.80;27.40
20740;DHT22;10530;49.968;19.844;2023-02-28T14:30:35;8.30;26.90
20740;DHT22;10530;49.968;19.844;2023-02-28T14:35:59;7.00;29.90
20740;DHT22;10530;49.968;19.844;2023-02-28T14:41:12;8.20;29.50
20740;DHT22;10530;49.968;19.844;2023-02-28T14:46:17;7.50;28.30
20740;DHT22;10530;49.968;19.844;2023-02-28T14:51:22;7.70;31.50
20740;DHT22;10530;49.968;19.844;2023-02-28T14:56:39;6.90;32.30
20740;DHT22;10530;49.968;19.844;2023-02-28T15:01:42;6.50;32.90
20740;DHT22;10530;49.968;19.844;2023-02-28T15:06:45;6.40;32.90
20740;DHT22;10530;49.968;19.844;2023-02-28T15:11:49;6.50;33.60
20740;DHT22;10530;49.968;19.844;2023-02-28T15:17:00;6.20;32.30
20740;DHT22;10530;49.968;19.844;2023-02-28T15:22:07;5.60;36.60
20740;DHT22;10530;49.968;19.844;2023-02-28T15:27:21;5.30;36.20
20740;DHT22;10530;49.968;19.844;2023-02-28T15:37:39;4.30;41.00
20740;DHT22;10530;49.968;19.844;2023-02-28T15:42:57;4.10;42.00
20740;DHT22;10530;49.968;19.844;2023-02-28T15:48:00;3.80;45.90
20740;DHT22;10530;49.968;19.844;2023-02-28T15:53:22;3.50;45.90
20740;DHT22;10530;49.968;19.844;2023-02-28T15:58:25;3.20;47.70
20740;DHT22;10530;49.968;19.844;2023-02-28T16:03:41;2.90;50.70
20740;DHT22;10530;49.968;19.844;2023-02-28T16:08:44;2.50;53.40
20740;DHT22;10530;49.968;19.844;2023-02-28T16:13:47;2.40;55.60
20740;DHT22;10530;49.968;19.844;2023-02-28T16:18:51;2.40;58.30
20740;DHT22;10530;49.968;19.844;2023-02-28T16:23:54;2.20;60.60
20740;DHT22;10530;49.968;19.844;2023-02-28T16:28:57;2.00;65.30
20740;DHT22;10530;49.968;19.844;2023-02-28T16:34:00;1.80;69.80
20740;DHT22;10530;49.968;19.844;2023-02-28T16:39:03;1.60;73.30
20740;DHT22;10530;49.968;19.844;2023-02-28T16:44:29;1.50;76.60
20740;DHT22;10530;49.968;19.844;2023-02-28T16:49:32;1.30;83.00
20740;DHT22;10530;49.968;19.844;2023-02-28T16:54:35;1.10;89.80
20740;DHT22;10530;49.968;19.844;2023-02-28T16:59:38;1.10;91.30
20740;DHT22;10530;49.968;19.844;2023-02-28T17:04:41;1.00;93.10
20740;DHT22;10530;49.968;19.844;2023-02-28T17:09:44;0.80;95.70
20740;DHT22;10530;49.968;19.844;2023-02-28T17:14:48;0.70;98.00
20740;DHT22;10530;49.968;19.844;2023-02-28T17:19:50;0.60;99.90
20740;DHT22;10530;49.968;19.844;2023-02-28T17:24:53;0.50;99.90
20740;DHT22;10530;49.968;19.844;2023-02-28T17:30:00;0.40;99.90
20740;DHT22;10530;49.968;19.844;2023-02-28T17:35:03;0.30;99.90
20740;DHT22;10530;49.968;19.844;2023-02-28T17:40:12;0.20;99.90
20740;DHT22;10530;49.968;19.844;2023-02-28T17:45:15;0.10;99.90
20740;DHT22;10530;49.968;19.844;2023-02-28T17:50:21;0.00;99.90
20740;DHT22;10530;49.968;19.844;2023-02-28T17:55:24;-0.10;99.90
20740;DHT22;10530;49.968;19.844;2023-02-28T18:00:27;-0.20;99.90
20740;DHT22;10530;49.968;19.844;2023-02-28T18:05:31;-0.30;99.90
20740;DHT22;10530;49.968;19.844;2023-02-28T18:10:34;-0.30;99.90
20740;DHT22;10530;49.968;19.844;2023-02-28T18:15:36;-0.40;99.90
20740;DHT22;10530;49.968;19.844;2023-02-28T18:20:41;-0.50;99.90
20740;DHT22;10530;49.968;19.844;2023-02-28T18:25:44;-0.60;99.90
20740;DHT22;10530;49.968;19.844;2023-02-28T18:30:47;-0.60;99.90
20740;DHT22;10530;49.968;19.844;2023-02-28T18:35:55;-0.60;99.90
20740;DHT22;10530;49.968;19.844;2023-02-28T18:41:01;-0.80;99.90
20740;DHT22;10530;49.968;19.844;2023-02-28T18:46:09;-0.90;99.90
20740;DHT22;10530;49.968;19.844;2023-02-28T18:51:18;-1.00;99.90
20740;DHT22;10530;49.968;19.844;2023-02-28T18:56:23;-1.00;99.90
20740;DHT22;10530;49.968;19.844;2023-02-28T19:01:28;-1.00;99.90
20740;DHT22;10530;49.968;19.844;2023-02-28T19:06:34;-1.00;99.90
20740;DHT22;10530;49.968;19.844;2023-02-28T19:11:39;-1.00;99.90
20740;DHT22;10530;49.968;19.844;2023-02-28T19:16:42;-1.20;99.90
20740;DHT22;10530;49.968;19.844;2023-02-28T19:21:45;-1.10;99.90
20740;DHT22;10530;49.968;19.844;2023-02-28T19:26:48;-1.20;99.90
20740;DHT22;10530;49.968;19.844;2023-02-28T19:31:51;-1.20;99.90
20740;DHT22;10530;49.968;19.844;2023-02-28T19:36:54;-1.30;99.90
20740;DHT22;10530;49.968;19.844;2023-02-28T19:41:58;-1.40;99.90
20740;DHT22;10530;49.968;19.844;2023-02-28T19:47:01;-1.40;99.90
20740;DHT22;10530;49.968;19.844;2023-02-28T19:52:04;-1.60;99.90
20740;DHT22;10530;49.968;19.844;2023-02-28T19:57:07;-1.70;99.90
20740;DHT22;10530;49.968;19.844;2023-02-28T20:02:13;-1.80;99.90
20740;DHT22;10530;49.968;19.844;2023-02-28T20:07:17;-2.00;99.90
20740;DHT22;10530;49.968;19.844;2023-02-28T20:12:23;-2.20;99.90
20740;DHT22;10530;49.968;19.844;2023-02-28T20:17:28;-2.20;99.90
20740;DHT22;10530;49.968;19.844;2023-02-28T20:22:31;-2.20;99.90
20740;DHT22;10530;49.968;19.844;2023-02-28T20:27:35;-2.30;99.90
20740;DHT22;10530;49.968;19.844;2023-02-28T20:32:37;-2.30;99.90
20740;DHT22;10530;49.968;19.844;2023-02-28T20:37:40;-2.40;99.90
20740;DHT22;10530;49.968;19.844;2023-02-28T20:42:43;-2.40;99.90
20740;DHT22;10530;49.968;19.844;2023-02-28T20:47:46;-2.40;99.90
20740;DHT22;10530;49.968;19.844;2023-02-28T20:52:49;-2.50;99.90
20740;DHT22;10530;49.968;19.844;2023-02-28T20:57:52;-2.50;99.90
20740;DHT22;10530;49.968;19.844;2023-02-28T21:02:55;-2.40;99.90
20740;DHT22;10530;49.968;19.844;2023-02-28T21:08:00;-2.60;99.90
20740;DHT22;10530;49.968;19.844;2023-02-28T21:13:03;-2.70;99.90
20740;DHT22;10530;49.968;19.844;2023-02-28T21:18:06;-2.70;99.90
20740;DHT22;10530;49.968;19.844;2023-02-28T21:23:09;-2.90;99.90
20740;DHT22;10530;49.968;19.844;2023-02-28T21:28:12;-2.90;99.90
20740;DHT22;10530;49.968;19.844;2023-02-28T21:33:14;-3.00;99.90
20740;DHT22;10530;49.968;19.844;2023-02-28T21:38:17;-2.90;99.90
20740;DHT22;10530;49.968;19.844;2023-02-28T21:43:20;-2.90;99.90
20740;DHT22;10530;49.968;19.844;2023-02-28T21:48:23;-3.00;99.90
20740;DHT22;10530;49.968;19.844;2023-02-28T21:53:26;-3.00;99.90
20740;DHT22;10530;49.968;19.844;2023-02-28T21:58:28;-3.10;99.90
20740;DHT22;10530;49.968;19.844;2023-02-28T22:03:31;-3.20;99.90
20740;DHT22;10530;49.968;19.844;2023-02-28T22:08:34;-3.50;99.90
20740;DHT22;10530;49.968;19.844;2023-02-28T22:13:37;-3.50;99.90
20740;DHT22;10530;49.968;19.844;2023-02-28T22:18:41;-3.40;99.90
20740;DHT22;10530;49.968;19.844;2023-02-28T22:23:44;-3.40;99.90
20740;DHT22;10530;49.968;19.844;2023-02-28T22:28:48;-3.40;99.90
20740;DHT22;10530;49.968;19.844;2023-02-28T22:33:53;-3.50;99.90
20740;DHT22;10530;49.968;19.844;2023-02-28T22:38:57;-3.60;99.90
20740;DHT22;10530;49.968;19.844;2023-02-28T22:44:03;-3.50;99.90
20740;DHT22;10530;49.968;19.844;2023-02-28T22:49:06;-3.70;99.90
20740;DHT22;10530;49.968;19.844;2023-02-28T22:54:09;-3.70;99.90
20740;DHT22;10530;49.968;19.844;2023-02-28T22:59:13;-3.70;99.90
20740;DHT22;10530;49.968;19.844;2023-02-28T23:04:16;-3.70;99.90
20740;DHT22;10530;49.968;19.844;2023-02-28T23:09:19;-3.70;99.90
20740;DHT22;10530;49.968;19.844;2023-02-28T23:14:24;-3.70;99.90
20740;DHT22;10530;49.968;19.844;2023-02-28T23:19:29;-3.70;99.90
20740;DHT22;10530;49.968;19.844;2023-02-28T23:24:33;-3.80;99.90
20740;DHT22;10530;49.968;19.844;2023-02-28T23:29:36;-3.70;99.90
20740;DHT22;10530;49.968;19.844;2023-02-28T23:34:38;-3.70;99.90
20740;DHT22;10530;49.968;19.844;2023-02-28T23:39:41;-3.60;99.90
20740;DHT22;10530;49.968;19.844;2023-02-28T23:44:44;-3.70;99.90
20740;DHT22;10530;49.968;19.844;2023-02-28T23:49:46;-3.70;99.90
20740;DHT22;10530;49.968;19.844;2023-02-28T23:54:49;-3.80;99.90
20740;DHT22;10530;49.968;19.844;2023-02-28T23:59:52;-3.80;99.90
